Terminal Aerodrome Forecast
Issued by NWS

Current Version | Previous Version | Text Only | Print | Product List | Glossary Off
Versions: 1 2 3 4 5 6 7 8 9 10 11 12 13 14 15 16 17 18 19 20 21 22 23 24 25 26 27 28

000
FTUS41 KILN 252351
TAFLUK
TAF
KLUK 252351Z 2600/2624 VRB03KT P6SM BKN250
     FM260800 00000KT 4SM BR BKN150 BKN250
      TEMPO 2609/2612 2SM BR
     FM261300 03004KT P6SM SCT040 BKN150
     FM262000 29006KT P6SM BKN040=

USA.gov is the U.S. government's official web portal to all federal, state and local government web resources and services.